Time;durP1;ratioP1;P1;durP2;ratioP2;P2;SDS_P1;SDS_P2;PMS_P1;PMS_P2;Temp;Humidity;BMP_temperature;BMP_pressure;BME280_temperature;BME280_humidity;BME280_pressure;Samples;Min_cycle;Max_cycle;Signal;HPM_P1;HPM_P2
2022/05/25 00:00:44;;;;;;;0.80;0.80;;;21.20;42.00;;;;;;5017591;28;20453;-58
2022/05/25 00:03:10;;;;;;;1.07;0.80;;;21.20;42.00;;;;;;5022211;28;20210;-58
2022/05/25 00:05:37;;;;;;;0.77;0.77;;;21.20;42.00;;;;;;5019539;28;20219;-58
2022/05/25 00:08:04;;;;;;;0.90;0.77;;;21.20;42.00;;;;;;5027615;28;20249;-58
2022/05/25 00:10:30;;;;;;;0.80;0.80;;;21.20;42.00;;;;;;5012740;28;20852;-58
2022/05/25 00:12:56;;;;;;;0.80;0.70;;;21.20;42.00;;;;;;5022217;28;20481;-58
2022/05/25 00:15:21;;;;;;;1.10;0.70;;;21.20;42.00;;;;;;5023963;28;20469;-58
2022/05/25 00:17:47;;;;;;;0.80;0.80;;;21.20;42.00;;;;;;5017349;28;20222;-58
2022/05/25 00:20:13;;;;;;;0.70;0.70;;;21.20;41.90;;;;;;5018826;28;20219;-58
2022/05/25 00:22:45;;;;;;;0.87;0.73;;;21.20;41.80;;;;;;5020320;28;20215;-58
2022/05/25 00:25:22;;;;;;;0.70;0.70;;;21.20;42.60;;;;;;5021765;28;20463;-58
2022/05/25 00:27:48;;;;;;;0.70;0.70;;;21.20;41.80;;;;;;5018296;28;20432;-58
2022/05/25 00:30:16;;;;;;;1.20;0.97;;;21.20;41.90;;;;;;5016544;28;20502;-58
2022/05/25 00:32:42;;;;;;;0.80;0.80;;;21.20;41.80;;;;;;5016520;28;20228;-58
2022/05/25 00:35:13;;;;;;;0.70;0.70;;;21.20;42.00;;;;;;5015492;28;20488;-58
2022/05/25 00:37:40;;;;;;;0.90;0.80;;;21.20;42.00;;;;;;5014155;28;20454;-58
2022/05/25 00:40:08;;;;;;;1.47;0.90;;;21.20;41.90;;;;;;5016087;28;20536;-58
2022/05/25 00:42:36;;;;;;;1.00;0.80;;;21.20;41.80;;;;;;5016234;28;20467;-58
2022/05/25 00:45:03;;;;;;;0.70;0.70;;;21.20;41.90;;;;;;5018748;28;20489;-58
2022/05/25 00:47:30;;;;;;;1.03;0.93;;;21.20;41.90;;;;;;5022889;28;20479;-58
2022/05/25 00:49:56;;;;;;;0.70;0.70;;;21.20;41.80;;;;;;5028869;28;20453;-57
2022/05/25 00:52:22;;;;;;;0.80;0.80;;;21.20;41.80;;;;;;5018007;28;20461;-58
2022/05/25 00:54:54;;;;;;;0.80;0.80;;;21.20;41.70;;;;;;5022894;28;20222;-58
2022/05/25 00:57:25;;;;;;;0.97;0.87;;;21.20;41.80;;;;;;5027791;28;20671;-58
2022/05/25 01:00:04;;;;;;;0.80;0.80;;;21.20;41.80;;;;;;5021510;28;20467;-58
2022/05/25 01:02:30;;;;;;;1.57;0.90;;;21.20;41.70;;;;;;5018775;28;20473;-59
2022/05/25 01:04:56;;;;;;;0.80;0.80;;;21.20;41.70;;;;;;5016686;28;20431;-58
2022/05/25 01:07:54;;;;;;;0.90;0.80;;;21.20;41.70;;;;;;5028532;28;20539;-58
2022/05/25 01:10:38;;;;;;;0.80;0.77;;;21.20;41.70;;;;;;5021449;28;20250;-58
2022/05/25 01:13:27;;;;;;;1.67;0.90;;;21.20;41.70;;;;;;5024352;28;20943;-58
2022/05/25 01:16:08;;;;;;;1.00;0.80;;;21.20;41.70;;;;;;5018462;28;20942;-58
2022/05/25 01:18:45;;;;;;;0.80;0.70;;;21.10;41.60;;;;;;5027813;28;20811;-58
2022/05/25 01:21:24;;;;;;;2.30;0.70;;;21.20;41.70;;;;;;5021591;28;20552;-58
2022/05/25 01:24:19;;;;;;;0.70;0.67;;;21.10;41.60;;;;;;5020335;28;20964;-58
2022/05/25 01:27:12;;;;;;;1.00;0.90;;;21.10;41.60;;;;;;5021983;28;20477;-58
2022/05/25 01:30:11;;;;;;;0.70;0.70;;;21.10;41.50;;;;;;5018963;28;20452;-58
2022/05/25 01:33:11;;;;;;;2.03;0.93;;;21.10;42.20;;;;;;5016263;28;20464;-58
2022/05/25 01:35:59;;;;;;;0.80;0.80;;;21.10;41.50;;;;;;5031863;28;20543;-58
2022/05/25 01:38:51;;;;;;;1.20;1.00;;;21.10;41.50;;;;;;5019306;28;20888;-58
2022/05/25 01:41:35;;;;;;;2.10;0.70;;;21.10;41.40;;;;;;5015085;28;20464;-58
2022/05/25 01:44:09;;;;;;;1.90;1.00;;;21.20;41.50;;;;;;5023455;28;20837;-57
2022/05/25 01:46:40;;;;;;;3.37;0.80;;;21.10;41.30;;;;;;5018428;28;20522;-58
2022/05/25 01:49:10;;;;;;;1.10;1.00;;;21.20;41.40;;;;;;5024762;28;20506;-57
2022/05/25 01:51:43;;;;;;;1.00;0.90;;;21.10;41.30;;;;;;5017011;28;20480;-57
2022/05/25 01:54:12;;;;;;;1.47;0.90;;;21.10;41.30;;;;;;5040991;28;20449;-57
2022/05/25 01:56:41;;;;;;;3.20;0.90;;;21.10;41.30;;;;;;5017725;28;20572;-58
2022/05/25 01:59:09;;;;;;;1.47;1.00;;;21.10;41.30;;;;;;5019401;28;20455;-57
2022/05/25 02:01:35;;;;;;;1.20;1.00;;;21.10;41.20;;;;;;5026880;28;20453;-57
2022/05/25 02:04:19;;;;;;;1.00;0.87;;;21.20;41.40;;;;;;5016084;28;20445;-58
2022/05/25 02:07:02;;;;;;;1.00;0.83;;;21.10;41.20;;;;;;5017373;28;20767;-57
2022/05/25 02:10:07;;;;;;;2.00;0.80;;;21.20;41.40;;;;;;5013866;28;20485;-57
2022/05/25 02:13:04;;;;;;;1.00;0.90;;;21.10;41.20;;;;;;5018933;28;20537;-57
2022/05/25 02:15:48;;;;;;;1.10;0.93;;;21.10;41.20;;;;;;5017466;28;20457;-59
2022/05/25 02:18:51;;;;;;;1.07;0.80;;;21.10;41.20;;;;;;5023241;28;20454;-57
2022/05/25 02:21:42;;;;;;;2.10;0.93;;;21.10;41.20;;;;;;5028018;28;20444;-57
2022/05/25 02:24:38;;;;;;;0.90;0.80;;;21.10;41.10;;;;;;5019802;28;20505;-57
2022/05/25 02:27:15;;;;;;;0.80;0.80;;;21.10;41.20;;;;;;5021025;28;20459;-57
2022/05/25 02:29:50;;;;;;;1.00;0.90;;;21.10;41.10;;;;;;5014535;28;20522;-57
2022/05/25 02:32:51;;;;;;;1.27;0.93;;;21.10;41.10;;;;;;5025607;28;20461;-57
2022/05/25 02:35:19;;;;;;;1.57;0.90;;;21.10;41.10;;;;;;4962727;28;20433;-57
2022/05/25 02:37:45;;;;;;;1.10;0.90;;;21.10;41.10;;;;;;5007311;28;20510;-57
2022/05/25 02:40:13;;;;;;;1.20;1.10;;;21.10;41.10;;;;;;5015600;28;20456;-58
2022/05/25 02:42:40;;;;;;;0.97;0.87;;;21.10;41.00;;;;;;5020064;28;20460;-57
2022/05/25 02:45:07;;;;;;;0.80;0.80;;;21.10;41.00;;;;;;5017042;28;20475;-57
2022/05/25 02:47:33;;;;;;;1.87;1.00;;;21.10;41.00;;;;;;5018498;28;20458;-58
2022/05/25 02:49:58;;;;;;;2.23;0.80;;;21.10;41.10;;;;;;5016274;28;20776;-57
2022/05/25 02:52:24;;;;;;;1.17;1.07;;;21.10;41.00;;;;;;5018643;28;20440;-57
2022/05/25 02:54:50;;;;;;;1.20;0.90;;;21.10;41.00;;;;;;5023058;28;20239;-57
2022/05/25 02:57:16;;;;;;;1.07;0.97;;;21.10;41.00;;;;;;5017966;28;20227;-58
2022/05/25 02:59:42;;;;;;;0.80;0.80;;;21.10;41.00;;;;;;5022667;28;20816;-57
2022/05/25 03:02:08;;;;;;;1.03;1.00;;;21.10;41.00;;;;;;5015026;28;20445;-57
2022/05/25 03:04:37;;;;;;;1.20;0.90;;;21.10;41.00;;;;;;5016179;28;20220;-58
2022/05/25 03:07:03;;;;;;;1.40;1.00;;;21.10;41.00;;;;;;5018986;28;20648;-58
2022/05/25 03:09:29;;;;;;;1.67;0.90;;;21.10;40.90;;;;;;5018555;28;20977;-58
2022/05/25 03:11:55;;;;;;;1.07;1.00;;;21.10;40.90;;;;;;5019964;28;20453;-57
2022/05/25 03:14:21;;;;;;;2.03;1.10;;;21.10;41.00;;;;;;5015983;28;20303;-57
2022/05/25 03:16:46;;;;;;;1.00;0.90;;;21.10;40.90;;;;;;5019250;28;20227;-57
2022/05/25 03:19:12;;;;;;;1.87;1.20;;;21.10;40.80;;;;;;5019866;28;20281;-58
2022/05/25 03:21:37;;;;;;;1.50;0.90;;;21.10;40.80;;;;;;5024710;28;20227;-57
2022/05/25 03:24:03;;;;;;;0.80;0.80;;;21.10;40.80;;;;;;5019974;28;20245;-59
2022/05/25 03:26:30;;;;;;;1.30;1.10;;;21.10;40.70;;;;;;5012450;28;20220;-61
2022/05/25 03:28:56;;;;;;;1.20;1.10;;;21.10;40.80;;;;;;5018392;28;20214;-57
2022/05/25 03:31:39;;;;;;;1.83;1.00;;;21.10;40.70;;;;;;5022279;28;20473;-57
2022/05/25 03:34:05;;;;;;;1.67;0.93;;;21.10;40.80;;;;;;4991297;28;20476;-57
2022/05/25 03:36:30;;;;;;;1.10;1.00;;;21.10;40.70;;;;;;5014264;28;20527;-58
2022/05/25 03:38:56;;;;;;;2.80;1.00;;;21.10;40.70;;;;;;5020775;28;20246;-57
2022/05/25 03:41:23;;;;;;;2.37;1.10;;;21.10;40.70;;;;;;5024380;28;20234;-57
2022/05/25 03:43:48;;;;;;;1.23;1.13;;;21.10;40.70;;;;;;5018307;28;20685;-57
2022/05/25 03:46:14;;;;;;;1.40;0.90;;;21.10;40.60;;;;;;5019279;28;20511;-57
2022/05/25 03:48:40;;;;;;;1.13;1.00;;;21.10;40.70;;;;;;5015522;28;20224;-58
2022/05/25 03:51:06;;;;;;;1.20;1.10;;;21.10;40.70;;;;;;5023995;28;20238;-57
2022/05/25 03:53:31;;;;;;;1.20;1.10;;;21.10;40.70;;;;;;5021436;28;20307;-57
2022/05/25 03:55:57;;;;;;;1.40;1.30;;;21.10;40.60;;;;;;5019363;28;20599;-58
2022/05/25 03:58:23;;;;;;;1.90;1.10;;;21.10;40.60;;;;;;5021067;28;20265;-57
2022/05/25 04:00:48;;;;;;;1.13;1.00;;;21.10;40.60;;;;;;5021605;28;20231;-57
2022/05/25 04:03:16;;;;;;;1.10;1.00;;;21.10;40.60;;;;;;5018471;28;20273;-57
2022/05/25 04:05:42;;;;;;;1.50;1.00;;;21.10;40.50;;;;;;5024352;28;20247;-57
2022/05/25 04:08:09;;;;;;;1.20;1.10;;;21.10;40.50;;;;;;5021223;28;20452;-57
2022/05/25 04:10:35;;;;;;;1.60;1.07;;;21.10;40.50;;;;;;5020082;28;20830;-58
2022/05/25 04:13:01;;;;;;;1.23;1.13;;;21.10;40.50;;;;;;5022670;28;20501;-58
2022/05/25 04:15:29;;;;;;;1.30;1.20;;;21.10;40.50;;;;;;5021024;28;20476;-58
2022/05/25 04:17:55;;;;;;;1.20;1.10;;;21.00;40.30;;;;;;5020603;28;20419;-57
2022/05/25 04:20:22;;;;;;;1.37;1.27;;;21.00;40.30;;;;;;5026679;28;20437;-57
2022/05/25 04:22:48;;;;;;;1.63;1.03;;;21.00;40.10;;;;;;5025115;28;20464;-57
2022/05/25 04:25:16;;;;;;;1.30;1.10;;;21.00;40.10;;;;;;5022609;28;20445;-57
2022/05/25 04:27:43;;;;;;;0.90;0.90;;;21.00;40.10;;;;;;5021308;28;20284;-57
2022/05/25 04:30:13;;;;;;;1.40;1.03;;;21.00;40.10;;;;;;5022020;28;20430;-58
2022/05/25 04:32:39;;;;;;;2.07;1.10;;;21.00;40.10;;;;;;5029943;28;20460;-57
2022/05/25 04:35:05;;;;;;;2.80;1.30;;;21.00;40.10;;;;;;5020240;28;20467;-58
2022/05/25 04:40:16;;;;;;;1.00;0.90;;;21.00;40.30;;;;;;5019510;28;20307;-58
2022/05/25 04:42:43;;;;;;;0.80;0.80;;;21.00;40.60;;;;;;5024474;28;20453;-60
2022/05/25 04:45:10;;;;;;;0.80;0.80;;;21.00;40.80;;;;;;5024480;28;20469;-59
2022/05/25 04:47:37;;;;;;;1.40;1.10;;;21.00;40.90;;;;;;5024540;28;20954;-57
2022/05/25 04:50:07;;;;;;;1.63;1.10;;;21.10;40.80;;;;;;5021015;28;20530;-57
2022/05/25 04:52:36;;;;;;;1.67;1.20;;;21.10;40.60;;;;;;5022145;28;20804;-58
2022/05/25 04:55:03;;;;;;;2.00;1.23;;;21.10;40.30;;;;;;5024691;28;20460;-57
2022/05/25 04:57:29;;;;;;;1.03;0.90;;;21.10;40.20;;;;;;5026831;28;20447;-57
2022/05/25 05:00:00;;;;;;;2.43;0.93;;;21.10;40.20;;;;;;5020075;28;20451;-57
2022/05/25 05:02:27;;;;;;;1.00;0.90;;;21.10;40.20;;;;;;5022867;28;20592;-57
2022/05/25 05:04:53;;;;;;;1.27;0.90;;;21.10;41.00;;;;;;5022704;28;20604;-57
2022/05/25 05:07:27;;;;;;;0.90;0.90;;;21.10;40.50;;;;;;5022180;28;20515;-57
2022/05/25 05:09:53;;;;;;;1.10;1.00;;;21.10;40.70;;;;;;5022455;28;20244;-57
2022/05/25 05:12:18;;;;;;;1.10;1.00;;;21.10;40.90;;;;;;5018984;28;20877;-58
2022/05/25 05:14:44;;;;;;;1.00;0.90;;;21.10;41.80;;;;;;5023354;28;20273;-57
2022/05/25 05:17:10;;;;;;;1.10;1.00;;;21.10;41.30;;;;;;5021746;28;20270;-57
2022/05/25 05:19:36;;;;;;;1.20;1.00;;;21.10;41.50;;;;;;5020072;28;20219;-58
2022/05/25 05:22:01;;;;;;;1.00;0.83;;;21.10;41.60;;;;;;5024363;28;20328;-58
2022/05/25 05:24:29;;;;;;;0.90;0.90;;;21.10;41.80;;;;;;5019830;28;20227;-57
2022/05/25 05:26:55;;;;;;;1.10;1.00;;;21.10;41.90;;;;;;5024752;28;20241;-57
2022/05/25 05:29:26;;;;;;;0.90;0.90;;;21.10;42.10;;;;;;5020007;28;20464;-59
2022/05/25 05:31:52;;;;;;;1.00;0.90;;;21.10;42.30;;;;;;5023301;28;20467;-59
2022/05/25 05:34:18;;;;;;;0.97;0.97;;;21.10;42.30;;;;;;5021876;28;21298;-58
2022/05/25 05:37:03;;;;;;;1.00;0.90;;;21.10;42.50;;;;;;5019721;28;20238;-58
2022/05/25 05:39:33;;;;;;;1.50;0.93;;;21.20;42.60;;;;;;5029286;28;20617;-58
2022/05/25 05:42:10;;;;;;;0.90;0.90;;;21.10;42.70;;;;;;5022415;28;20427;-58
2022/05/25 05:44:43;;;;;;;1.20;0.90;;;21.10;42.80;;;;;;5020699;28;20472;-58
2022/05/25 05:47:16;;;;;;;1.20;1.10;;;21.20;43.80;;;;;;5019124;28;20427;-58
2022/05/25 05:49:41;;;;;;;1.17;1.07;;;21.20;43.10;;;;;;5021761;28;20428;-59
2022/05/25 05:52:08;;;;;;;0.80;0.80;;;21.20;43.20;;;;;;5021088;28;20472;-58
2022/05/25 05:54:34;;;;;;;1.33;0.90;;;21.20;43.30;;;;;;5030585;28;20265;-59
2022/05/25 05:57:00;;;;;;;0.90;0.90;;;21.10;43.30;;;;;;5020258;28;20955;-59
2022/05/25 05:59:25;;;;;;;1.00;0.90;;;21.20;43.50;;;;;;5021034;28;20820;-58
2022/05/25 06:01:51;;;;;;;1.20;1.00;;;21.20;43.50;;;;;;5021450;28;20445;-58
2022/05/25 06:04:16;;;;;;;1.00;0.90;;;21.20;43.60;;;;;;5018856;28;20589;-58
2022/05/25 06:06:42;;;;;;;1.13;0.90;;;21.20;43.70;;;;;;5021940;28;20310;-57
2022/05/25 06:09:08;;;;;;;1.10;1.00;;;21.20;43.70;;;;;;5021916;28;20236;-58
2022/05/25 06:11:40;;;;;;;1.13;1.00;;;21.20;43.80;;;;;;5018960;28;20252;-58
2022/05/25 06:14:05;;;;;;;1.20;1.10;;;21.20;43.90;;;;;;5019891;28;20453;-58
2022/05/25 06:19:30;;;;;;;1.10;1.00;;;21.20;44.00;;;;;;5017070;28;20234;-58
2022/05/25 06:22:08;;;;;;;1.00;0.90;;;21.20;44.10;;;;;;5022028;28;20499;-57
2022/05/25 06:24:40;;;;;;;0.93;0.93;;;21.20;44.10;;;;;;5017021;28;20446;-58
2022/05/25 06:27:11;;;;;;;1.00;0.90;;;21.20;44.20;;;;;;5022456;28;20455;-58
2022/05/25 06:29:39;;;;;;;1.20;1.10;;;21.20;45.10;;;;;;5020981;28;20521;-57
2022/05/25 06:32:07;;;;;;;1.10;1.00;;;21.20;44.30;;;;;;5018020;28;20501;-58
2022/05/25 06:34:34;;;;;;;1.70;1.03;;;21.20;44.30;;;;;;5018906;28;20428;-57
2022/05/25 06:37:00;;;;;;;1.00;1.00;;;21.20;44.40;;;;;;5023914;28;20459;-57
2022/05/25 06:39:27;;;;;;;1.37;1.27;;;21.20;44.40;;;;;;5017691;28;20451;-57
2022/05/25 06:41:53;;;;;;;0.80;0.80;;;21.20;44.40;;;;;;5018253;28;20933;-57
2022/05/25 06:44:19;;;;;;;1.10;1.00;;;21.20;44.50;;;;;;5022425;28;20451;-56
2022/05/25 06:46:46;;;;;;;0.90;0.90;;;21.20;44.50;;;;;;5022112;28;20549;-57
2022/05/25 06:49:12;;;;;;;1.10;1.00;;;21.20;44.60;;;;;;5022540;28;20212;-58
2022/05/25 06:51:37;;;;;;;1.23;1.03;;;21.20;44.60;;;;;;5020870;28;20476;-58
2022/05/25 06:54:04;;;;;;;0.97;0.87;;;21.10;44.60;;;;;;5035186;28;20653;-60
2022/05/25 06:56:30;;;;;;;1.33;1.23;;;21.20;44.60;;;;;;5020396;28;20803;-58
2022/05/25 06:58:57;;;;;;;1.00;0.90;;;21.20;44.60;;;;;;5017900;28;20448;-57
2022/05/25 07:01:24;;;;;;;1.10;1.00;;;21.20;44.70;;;;;;5017592;28;20235;-57
2022/05/25 07:03:52;;;;;;;1.40;1.00;;;21.20;44.80;;;;;;5026036;28;21129;-58
2022/05/25 07:06:18;;;;;;;1.17;1.07;;;21.20;45.60;;;;;;5019988;28;20450;-58
2022/05/25 07:08:45;;;;;;;1.27;1.17;;;21.20;44.80;;;;;;5019897;28;20451;-58
2022/05/25 07:11:11;;;;;;;1.23;1.13;;;21.20;44.80;;;;;;5021902;28;20457;-58
2022/05/25 07:13:37;;;;;;;1.23;1.13;;;21.20;44.80;;;;;;5017920;28;20428;-58
2022/05/25 07:16:05;;;;;;;1.30;1.00;;;21.20;45.60;;;;;;5023313;28;20465;-58
2022/05/25 07:18:32;;;;;;;1.40;1.30;;;21.20;44.90;;;;;;5016311;28;20455;-59
2022/05/25 07:21:00;;;;;;;1.07;0.97;;;21.20;44.90;;;;;;5021818;28;20445;-58
2022/05/25 07:23:25;;;;;;;1.60;1.07;;;21.20;45.00;;;;;;5017458;28;20458;-57
2022/05/25 07:25:51;;;;;;;1.00;0.90;;;21.10;44.90;;;;;;5023517;28;20465;-58
2022/05/25 07:28:16;;;;;;;3.20;1.20;;;21.10;44.90;;;;;;5019722;28;20315;-57
2022/05/25 07:30:42;;;;;;;1.20;1.10;;;21.10;45.00;;;;;;5022541;28;20238;-59
2022/05/25 07:33:08;;;;;;;1.30;1.20;;;21.20;45.00;;;;;;5016449;28;20645;-58
2022/05/25 07:35:34;;;;;;;1.17;1.07;;;21.10;45.00;;;;;;5018202;28;20227;-57
2022/05/25 07:38:01;;;;;;;1.00;0.90;;;21.20;45.10;;;;;;5017609;28;20439;-58
2022/05/25 07:40:33;;;;;;;0.83;0.80;;;21.20;45.10;;;;;;5019261;28;20231;-58
2022/05/25 07:43:03;;;;;;;1.20;1.10;;;21.20;45.00;;;;;;5020183;28;20610;-58
2022/05/25 07:45:29;;;;;;;1.20;1.10;;;21.20;45.00;;;;;;5021555;28;20472;-58
2022/05/25 07:47:55;;;;;;;1.57;1.10;;;21.20;45.10;;;;;;5021917;28;20452;-58
2022/05/25 07:50:22;;;;;;;1.10;1.00;;;21.20;45.00;;;;;;5019780;28;20424;-58
2022/05/25 07:52:52;;;;;;;1.40;1.30;;;21.10;45.10;;;;;;5020441;28;20220;-58
2022/05/25 07:55:19;;;;;;;1.00;1.00;;;21.20;45.10;;;;;;5025068;28;20452;-58
2022/05/25 07:57:44;;;;;;;1.57;1.10;;;21.20;45.10;;;;;;5026746;28;20482;-58
2022/05/25 08:00:11;;;;;;;1.20;1.10;;;21.20;45.20;;;;;;5025603;28;20980;-58
2022/05/25 08:08:23;;;;;;;1.10;1.00;;;21.10;45.20;;;;;;5021524;28;20471;-58
2022/05/25 08:10:57;;;;;;;1.10;0.97;;;21.10;45.20;;;;;;5017793;28;20471;-59
2022/05/25 08:13:24;;;;;;;1.00;0.90;;;21.10;45.20;;;;;;5021822;28;20518;-59
2022/05/25 08:15:50;;;;;;;1.00;1.00;;;21.10;45.30;;;;;;5022095;28;20927;-58
2022/05/25 08:18:18;;;;;;;1.10;1.00;;;21.10;45.30;;;;;;5021811;28;20937;-58
2022/05/25 08:20:44;;;;;;;1.20;1.00;;;21.20;45.40;;;;;;5022880;28;20227;-58
2022/05/25 08:23:13;;;;;;;1.00;0.90;;;21.10;45.30;;;;;;5021371;28;20507;-58
2022/05/25 08:25:39;;;;;;;0.90;0.90;;;21.10;45.50;;;;;;5022833;28;20234;-58
2022/05/25 08:28:05;;;;;;;1.10;1.00;;;21.10;45.40;;;;;;5023267;28;20532;-58
2022/05/25 08:30:33;;;;;;;1.27;1.17;;;21.10;45.50;;;;;;5023760;28;20310;-58
2022/05/25 08:32:59;;;;;;;1.20;1.10;;;21.10;45.60;;;;;;5025175;28;20423;-58
2022/05/25 08:35:26;;;;;;;1.10;1.00;;;21.10;45.50;;;;;;5023031;28;20422;-58
2022/05/25 08:37:52;;;;;;;1.10;1.00;;;21.10;45.60;;;;;;5026986;28;20306;-57
2022/05/25 08:40:19;;;;;;;1.00;0.90;;;21.10;45.60;;;;;;5023232;28;20874;-58
2022/05/25 08:42:56;;;;;;;1.20;1.00;;;21.10;45.70;;;;;;5018283;28;20233;-58
2022/05/25 08:45:24;;;;;;;1.43;1.00;;;21.10;45.60;;;;;;5024235;28;20468;-58
2022/05/25 08:47:58;;;;;;;1.10;1.00;;;21.10;45.60;;;;;;5020051;28;20456;-58
2022/05/25 08:50:24;;;;;;;1.07;1.00;;;21.10;45.60;;;;;;5021345;28;20532;-58
2022/05/25 08:52:55;;;;;;;0.93;0.83;;;21.10;45.70;;;;;;5026635;28;20445;-58
2022/05/25 08:55:54;;;;;;;1.40;1.30;;;21.10;45.70;;;;;;5025106;28;20472;-58
2022/05/25 08:58:23;;;;;;;0.80;0.80;;;21.10;45.70;;;;;;5019275;28;20449;-58
2022/05/25 09:00:52;;;;;;;0.80;0.80;;;21.10;45.70;;;;;;5023090;28;20424;-58
2022/05/25 09:03:37;;;;;;;1.40;0.97;;;21.10;45.70;;;;;;5017674;28;20452;-58
2022/05/25 09:06:13;;;;;;;1.00;0.90;;;21.10;45.70;;;;;;5021931;28;20502;-59
2022/05/25 09:09:10;;;;;;;1.10;1.00;;;21.10;45.70;;;;;;5025488;28;20422;-58
2022/05/25 09:11:39;;;;;;;0.90;0.90;;;21.10;45.70;;;;;;5019183;28;20468;-59
2022/05/25 09:14:20;;;;;;;1.00;0.90;;;21.10;45.60;;;;;;5026717;28;20448;-58
2022/05/25 09:16:49;;;;;;;0.90;0.90;;;21.10;45.60;;;;;;5024700;28;20824;-58
2022/05/25 09:19:22;;;;;;;1.07;0.97;;;21.10;45.70;;;;;;5024044;28;20436;-58
2022/05/25 09:22:01;;;;;;;2.40;0.97;;;21.10;45.70;;;;;;5021865;28;20555;-58
2022/05/25 09:24:28;;;;;;;0.80;0.80;;;21.10;45.70;;;;;;5026119;28;20434;-58
2022/05/25 09:26:55;;;;;;;1.03;0.93;;;21.10;45.70;;;;;;5017442;28;20446;-58
2022/05/25 09:29:23;;;;;;;1.00;0.90;;;21.10;45.70;;;;;;5023746;28;20449;-58
2022/05/25 09:32:07;;;;;;;0.90;0.90;;;21.10;45.70;;;;;;5024358;28;20502;-58
2022/05/25 09:34:53;;;;;;;1.13;0.90;;;21.10;45.70;;;;;;5020572;28;20487;-58
2022/05/25 09:37:32;;;;;;;1.20;0.90;;;21.10;45.70;;;;;;5021863;28;20471;-59
2022/05/25 09:40:03;;;;;;;0.90;0.80;;;21.10;45.60;;;;;;5016938;28;20453;-57
2022/05/25 09:42:34;;;;;;;1.10;0.80;;;21.10;45.70;;;;;;5022617;28;20511;-58
2022/05/25 09:45:00;;;;;;;1.80;0.83;;;21.10;45.60;;;;;;5023778;28;20457;-58
2022/05/25 09:47:38;;;;;;;0.87;0.87;;;21.10;45.70;;;;;;5020363;28;20418;-58
2022/05/25 09:50:06;;;;;;;0.90;0.80;;;21.10;45.70;;;;;;5018002;28;20546;-59
2022/05/25 09:52:47;;;;;;;1.27;0.80;;;21.10;45.70;;;;;;5022191;28;21304;-57
2022/05/25 09:55:28;;;;;;;0.80;0.80;;;21.10;45.70;;;;;;5016241;28;20453;-57
2022/05/25 09:57:57;;;;;;;0.80;0.80;;;21.10;45.70;;;;;;5024294;28;20604;-57
2022/05/25 10:00:37;;;;;;;0.80;0.80;;;21.10;45.70;;;;;;5021409;28;20453;-57
2022/05/25 10:03:08;;;;;;;0.83;0.83;;;21.10;45.70;;;;;;5021608;28;20448;-59
2022/05/25 10:05:56;;;;;;;0.80;0.70;;;21.10;45.70;;;;;;5021204;28;20419;-61
2022/05/25 10:08:36;;;;;;;0.80;0.80;;;21.10;45.70;;;;;;5020022;28;20466;-61
2022/05/25 10:11:33;;;;;;;1.10;0.80;;;21.10;45.70;;;;;;5018300;28;20464;-59
2022/05/25 10:14:21;;;;;;;1.03;0.90;;;21.10;45.70;;;;;;5021447;28;20442;-59
2022/05/25 10:16:47;;;;;;;0.90;0.80;;;21.00;45.60;;;;;;5016860;28;20461;-58
2022/05/25 10:19:17;;;;;;;1.00;0.90;;;21.00;45.60;;;;;;5022956;28;20514;-59
2022/05/25 10:21:54;;;;;;;1.00;0.90;;;21.00;45.60;;;;;;5020110;28;20243;-58
2022/05/25 10:24:40;;;;;;;1.00;0.90;;;21.00;45.60;;;;;;5025640;28;20444;-58
2022/05/25 10:27:26;;;;;;;0.80;0.80;;;21.00;45.60;;;;;;5023649;28;20465;-59
2022/05/25 10:38:26;;;;;;;0.73;0.70;;;21.00;45.60;;;;;;5026977;28;20501;-58
2022/05/25 10:40:52;;;;;;;0.90;0.90;;;21.00;45.60;;;;;;5021769;28;20448;-58
2022/05/25 10:43:29;;;;;;;1.00;0.90;;;21.00;46.30;;;;;;5017649;28;20810;-58
2022/05/25 10:45:57;;;;;;;0.80;0.80;;;21.00;45.60;;;;;;5021346;28;20299;-58
2022/05/25 10:48:43;;;;;;;0.90;0.80;;;21.00;45.50;;;;;;5023365;28;20453;-58
2022/05/25 10:51:13;;;;;;;1.00;0.80;;;21.00;45.60;;;;;;5020620;28;20882;-58
2022/05/25 10:57:12;;;;;;;0.70;0.70;;;21.00;45.60;;;;;;5016661;28;20499;-59
2022/05/25 10:59:59;;;;;;;0.90;0.80;;;21.00;45.60;;;;;;4985419;28;20453;-58
2022/05/25 11:02:36;;;;;;;0.80;0.80;;;21.00;45.60;;;;;;5019753;28;21353;-58
2022/05/25 11:05:09;;;;;;;0.80;0.80;;;21.00;45.60;;;;;;5025189;28;20447;-58
2022/05/25 11:07:36;;;;;;;1.00;0.90;;;21.00;45.60;;;;;;5019888;28;20446;-59
2022/05/25 11:10:30;;;;;;;0.70;0.70;;;21.00;45.60;;;;;;5020063;28;20472;-58
2022/05/25 11:13:51;;;;;;;1.47;0.90;;;21.00;45.60;;;;;;5009644;28;20460;-58
2022/05/25 11:16:16;;;;;;;0.80;0.70;;;21.00;45.60;;;;;;4962090;28;20486;-58
2022/05/25 11:18:48;;;;;;;1.50;0.80;;;21.00;45.60;;;;;;5009920;28;20881;-58
2022/05/25 11:21:36;;;;;;;0.80;0.80;;;21.00;45.60;;;;;;5019301;28;20778;-58
2022/05/25 11:24:29;;;;;;;0.80;0.80;;;21.00;45.60;;;;;;5020508;28;20471;-59
2022/05/25 11:27:29;;;;;;;1.00;1.00;;;21.00;45.60;;;;;;5023057;28;20440;-58
2022/05/25 11:30:00;;;;;;;2.70;0.73;;;21.00;45.60;;;;;;5017416;28;20449;-58
2022/05/25 11:32:48;;;;;;;1.00;0.90;;;21.00;45.60;;;;;;5020375;28;20473;-58
2022/05/25 11:35:29;;;;;;;0.87;0.87;;;21.00;45.60;;;;;;5022921;28;20454;-58
2022/05/25 11:38:11;;;;;;;0.77;0.70;;;21.00;45.60;;;;;;5024623;28;20439;-58
2022/05/25 11:40:44;;;;;;;1.80;0.80;;;21.00;45.50;;;;;;5019395;28;20457;-58
2022/05/25 11:43:55;;;;;;;0.90;0.80;;;21.00;45.60;;;;;;5018952;28;20536;-58
2022/05/25 11:46:43;;;;;;;0.70;0.70;;;21.00;45.60;;;;;;5015758;28;20476;-58
2022/05/25 11:49:38;;;;;;;1.37;0.70;;;21.00;45.60;;;;;;5019030;28;20972;-58
2022/05/25 11:52:28;;;;;;;0.80;0.80;;;21.00;45.60;;;;;;5020601;28;20472;-57
2022/05/25 11:55:15;;;;;;;1.10;0.90;;;21.00;45.60;;;;;;5023895;28;20472;-58
2022/05/25 11:58:15;;;;;;;0.80;0.80;;;21.00;45.60;;;;;;5022392;28;20474;-61
2022/05/25 12:00:43;;;;;;;0.70;0.70;;;21.00;45.60;;;;;;5020976;28;20942;-58
2022/05/25 12:03:33;;;;;;;0.80;0.80;;;21.00;45.60;;;;;;5017324;28;20442;-59
2022/05/25 12:06:37;;;;;;;0.90;0.80;;;21.00;45.60;;;;;;5016985;28;20428;-58
2022/05/25 12:09:30;;;;;;;0.80;0.80;;;21.00;45.60;;;;;;5017773;28;20496;-58
2022/05/25 12:12:09;;;;;;;0.80;0.80;;;21.00;45.60;;;;;;5013060;28;20441;-58
2022/05/25 12:15:01;;;;;;;0.80;0.80;;;21.00;45.60;;;;;;5017097;28;20490;-59
2022/05/25 12:17:30;;;;;;;0.70;0.70;;;21.00;45.60;;;;;;5020128;28;20435;-58
2022/05/25 12:19:59;;;;;;;0.77;0.77;;;21.00;45.60;;;;;;5014256;28;20801;-58
2022/05/25 12:22:32;;;;;;;1.67;0.87;;;21.00;45.60;;;;;;5022142;28;20483;-58
2022/05/25 12:25:04;;;;;;;0.80;0.80;;;21.00;45.60;;;;;;5022533;28;20871;-58
2022/05/25 12:27:37;;;;;;;0.90;0.90;;;21.00;45.60;;;;;;5025068;28;20448;-59
2022/05/25 12:30:09;;;;;;;0.80;0.80;;;21.00;45.60;;;;;;5020167;28;20433;-58
2022/05/25 12:32:38;;;;;;;0.80;0.80;;;21.00;45.60;;;;;;5013061;28;20431;-59
2022/05/25 12:35:05;;;;;;;0.93;0.73;;;21.00;45.60;;;;;;5029303;28;20460;-58
2022/05/25 12:37:35;;;;;;;1.00;0.90;;;21.00;45.60;;;;;;5021322;28;20471;-58
2022/05/25 12:40:03;;;;;;;0.80;0.70;;;21.00;45.60;;;;;;5018992;28;20511;-58
2022/05/25 12:42:30;;;;;;;0.80;0.80;;;21.00;45.50;;;;;;5021514;28;20481;-58
2022/05/25 12:50:57;;;;;;;0.97;0.73;;;21.00;45.60;;;;;;5020178;28;20472;-57
2022/05/25 12:53:50;;;;;;;2.80;0.97;;;21.00;45.60;;;;;;5020511;28;20444;-58
2022/05/25 12:56:19;;;;;;;0.80;0.80;;;21.00;45.60;;;;;;5019707;28;20435;-58
2022/05/25 12:58:47;;;;;;;0.70;0.70;;;21.00;45.60;;;;;;5022726;28;20460;-59
2022/05/25 13:01:22;;;;;;;1.43;0.87;;;21.00;45.60;;;;;;5027223;28;20932;-58
2022/05/25 13:03:47;;;;;;;0.70;0.70;;;21.00;45.60;;;;;;5025500;28;20938;-58
2022/05/25 13:06:17;;;;;;;0.70;0.70;;;21.00;45.60;;;;;;5023818;28;20518;-58
2022/05/25 13:08:59;;;;;;;0.80;0.80;;;21.00;45.60;;;;;;5023089;28;21027;-58
2022/05/25 13:11:47;;;;;;;1.10;0.90;;;21.00;45.60;;;;;;5026067;28;20925;-58
2022/05/25 13:14:34;;;;;;;0.83;0.83;;;21.00;45.60;;;;;;5022635;28;20425;-58
2022/05/25 13:17:03;;;;;;;0.90;0.90;;;21.00;45.60;;;;;;5025720;28;20438;-58
2022/05/25 13:19:37;;;;;;;0.80;0.80;;;21.00;45.60;;;;;;5021707;28;20999;-58
2022/05/25 13:22:03;;;;;;;0.80;0.80;;;21.00;45.60;;;;;;5023442;28;20441;-58
2022/05/25 13:24:50;;;;;;;1.00;0.90;;;21.00;45.50;;;;;;5029796;28;20982;-58
2022/05/25 13:27:21;;;;;;;0.87;0.87;;;21.00;45.50;;;;;;5020332;28;20308;-58
2022/05/25 13:30:13;;;;;;;0.80;0.80;;;21.00;45.60;;;;;;5024062;28;20458;-58
2022/05/25 13:32:56;;;;;;;0.80;0.80;;;21.00;45.60;;;;;;4994351;28;20490;-58
2022/05/25 13:35:21;;;;;;;1.00;0.90;;;21.00;45.60;;;;;;5025156;28;20439;-59
2022/05/25 13:37:52;;;;;;;1.00;0.90;;;21.00;45.60;;;;;;5027508;28;20444;-57
2022/05/25 13:40:20;;;;;;;0.77;0.77;;;21.00;45.60;;;;;;5021245;28;20223;-58
2022/05/25 13:42:49;;;;;;;0.90;0.90;;;21.00;45.60;;;;;;5019839;28;20456;-58
2022/05/25 13:45:27;;;;;;;0.80;0.80;;;21.00;45.60;;;;;;5023811;28;20490;-58